Time;durP1;ratioP1;P1;durP2;ratioP2;P2;SDS_P1;SDS_P2;PMS_P1;PMS_P2;Temp;Humidity;BMP_temperature;BMP_pressure;BME280_temperature;BME280_humidity;BME280_pressure;Samples;Min_cycle;Max_cycle;Signal;HPM_P1;HPM_P2
2021/11/20 00:01:13;;;;;;;13.47;12.07;;;7.60;71.00;;;;;;4983832;28;20783;-90
2021/11/20 00:03:43;;;;;;;11.13;10.03;;;7.60;71.30;;;;;;4976334;28;20427;-90
2021/11/20 00:06:09;;;;;;;12.43;11.13;;;7.60;70.60;;;;;;4974611;28;20432;-90
2021/11/20 00:08:35;;;;;;;12.97;10.40;;;7.60;70.40;;;;;;4974743;28;20616;-91
2021/11/20 00:11:04;;;;;;;11.40;10.30;;;7.60;70.40;;;;;;4974743;28;20429;-90
2021/11/20 00:13:30;;;;;;;10.63;9.50;;;7.60;70.00;;;;;;4974735;28;20178;-90
2021/11/20 00:15:58;;;;;;;11.43;10.17;;;7.50;69.90;;;;;;4974037;28;20421;-90
2021/11/20 00:18:25;;;;;;;10.80;9.70;;;7.60;70.80;;;;;;4973623;28;20461;-90
2021/11/20 00:20:56;;;;;;;11.73;10.53;;;7.50;69.90;;;;;;4974718;28;20762;-89
2021/11/20 00:23:32;;;;;;;11.77;10.27;;;7.50;69.90;;;;;;4974270;28;20422;-89
2021/11/20 00:25:59;;;;;;;11.73;9.97;;;7.60;70.30;;;;;;4973931;28;20414;-89
2021/11/20 00:28:42;;;;;;;11.07;9.93;;;7.60;70.30;;;;;;4973767;28;20772;-89
2021/11/20 00:31:14;;;;;;;13.40;11.63;;;7.60;70.00;;;;;;4972407;28;20461;-89
2021/11/20 00:33:41;;;;;;;10.13;9.10;;;7.50;70.00;;;;;;4970038;28;20414;-82
2021/11/20 00:36:08;;;;;;;10.57;9.50;;;7.60;70.60;;;;;;4971303;28;20488;-83
2021/11/20 00:38:35;;;;;;;11.27;10.07;;;7.60;70.10;;;;;;4969648;28;20458;-82
2021/11/20 00:41:05;;;;;;;12.23;9.73;;;7.60;70.00;;;;;;4969794;28;20451;-82
2021/11/20 00:43:31;;;;;;;10.73;9.63;;;7.60;70.20;;;;;;4969859;28;20442;-82
2021/11/20 00:45:57;;;;;;;10.33;9.23;;;7.60;70.10;;;;;;4969536;28;20457;-83
2021/11/20 00:48:25;;;;;;;12.13;10.50;;;7.60;70.40;;;;;;4970778;28;20544;-83
2021/11/20 00:50:55;;;;;;;10.80;9.70;;;7.60;69.70;;;;;;4971201;28;20416;-83
2021/11/20 00:53:21;;;;;;;10.83;9.73;;;7.60;70.00;;;;;;4969614;28;20454;-83
2021/11/20 00:55:47;;;;;;;11.10;9.87;;;7.60;70.10;;;;;;4969268;28;20449;-82
2021/11/20 00:58:14;;;;;;;11.02;9.60;;;7.60;69.70;;;;;;4968163;28;20997;-83
2021/11/20 01:00:43;;;;;;;12.10;10.60;;;7.60;69.70;;;;;;4969314;28;20175;-83
2021/11/20 01:03:10;;;;;;;11.70;10.60;;;7.60;70.00;;;;;;4969022;28;20910;-83
2021/11/20 01:05:37;;;;;;;9.60;8.70;;;7.60;69.70;;;;;;4969851;28;20892;-84
2021/11/20 01:08:06;;;;;;;11.43;10.23;;;7.60;69.40;;;;;;4969190;28;20824;-85
2021/11/20 01:10:35;;;;;;;12.43;11.20;;;7.60;69.60;;;;;;4968284;28;20416;-84
2021/11/20 01:13:02;;;;;;;10.73;9.73;;;7.60;70.00;;;;;;4969227;28;20429;-84
2021/11/20 01:15:39;;;;;;;11.90;10.70;;;7.60;70.00;;;;;;4968907;28;20417;-84
2021/11/20 01:18:07;;;;;;;11.47;9.53;;;7.60;70.00;;;;;;4969833;28;20468;-83
2021/11/20 01:20:33;;;;;;;13.10;11.77;;;7.50;69.80;;;;;;4969674;28;20862;-84
2021/11/20 01:22:59;;;;;;;12.20;11.00;;;7.50;69.80;;;;;;4983197;28;20585;-83
2021/11/20 01:25:25;;;;;;;12.00;10.50;;;7.50;69.70;;;;;;4968206;28;20242;-83
2021/11/20 01:27:51;;;;;;;11.60;9.90;;;7.50;69.90;;;;;;4979617;28;20429;-83
2021/11/20 01:30:18;;;;;;;13.43;11.00;;;7.60;70.00;;;;;;4962450;28;20422;-83
2021/11/20 01:32:44;;;;;;;11.50;10.30;;;7.60;69.50;;;;;;4969603;28;20923;-83
2021/11/20 01:35:10;;;;;;;12.40;11.10;;;7.60;70.00;;;;;;4969941;28;20508;-82
2021/11/20 01:37:38;;;;;;;11.37;10.17;;;7.60;69.10;;;;;;4985587;28;20470;-84
2021/11/20 01:40:17;;;;;;;11.87;10.47;;;7.60;70.10;;;;;;4968503;28;20421;-84
2021/11/20 01:42:43;;;;;;;12.10;10.80;;;7.60;69.40;;;;;;4968456;28;20456;-84
2021/11/20 01:45:17;;;;;;;14.17;12.13;;;7.60;69.60;;;;;;4968596;28;20981;-83
2021/11/20 01:47:58;;;;;;;12.13;10.63;;;7.60;69.20;;;;;;4968349;28;20426;-83
2021/11/20 01:50:40;;;;;;;13.77;12.37;;;7.60;69.50;;;;;;4968485;28;20429;-83
2021/11/20 01:53:08;;;;;;;12.17;10.80;;;7.60;69.70;;;;;;4964649;28;20465;-83
2021/11/20 01:55:47;;;;;;;13.17;11.87;;;7.50;70.00;;;;;;4964336;28;20894;-84
2021/11/20 01:58:27;;;;;;;12.10;10.60;;;7.60;69.70;;;;;;4969638;28;20464;-82
2021/11/20 02:01:00;;;;;;;13.73;12.30;;;7.60;70.00;;;;;;4967754;28;20426;-83
2021/11/20 02:03:28;;;;;;;13.53;12.10;;;7.60;69.80;;;;;;4968822;28;20514;-83
2021/11/20 02:06:24;;;;;;;12.60;11.27;;;7.60;69.90;;;;;;4967888;28;20425;-84
2021/11/20 02:09:07;;;;;;;14.00;12.30;;;7.60;69.40;;;;;;4968020;28;20576;-83
2021/11/20 02:11:36;;;;;;;14.53;12.50;;;7.50;69.10;;;;;;4967826;28;20434;-83
2021/11/20 02:14:03;;;;;;;13.63;12.13;;;7.60;68.80;;;;;;4967699;28;20422;-83
2021/11/20 02:16:43;;;;;;;12.43;11.13;;;7.60;69.30;;;;;;4967507;28;20186;-84
2021/11/20 02:19:13;;;;;;;13.00;11.63;;;7.60;68.90;;;;;;4967795;28;20543;-84
2021/11/20 02:22:10;;;;;;;13.63;12.33;;;7.60;69.00;;;;;;4968010;28;20437;-84
2021/11/20 02:24:35;;;;;;;13.63;11.97;;;7.60;68.40;;;;;;4967731;28;20941;-84
2021/11/20 02:27:06;;;;;;;14.17;12.27;;;7.60;68.50;;;;;;4969390;28;20402;-82
2021/11/20 02:29:31;;;;;;;14.43;12.77;;;7.60;68.30;;;;;;4969067;28;20170;-86
2021/11/20 02:32:02;;;;;;;14.17;12.07;;;7.60;68.10;;;;;;4970151;28;20509;-91
2021/11/20 02:34:32;;;;;;;13.37;12.00;;;7.60;68.30;;;;;;4972754;28;20171;-92
2021/11/20 02:36:58;;;;;;;13.67;12.27;;;7.60;68.20;;;;;;4973096;28;20421;-91
2021/11/20 02:39:27;;;;;;;13.63;11.40;;;7.60;68.20;;;;;;4973349;28;20468;-91
2021/11/20 02:41:57;;;;;;;12.83;10.83;;;7.60;68.70;;;;;;4972670;28;20457;-91
2021/11/20 02:44:24;;;;;;;13.83;12.40;;;7.60;68.70;;;;;;4972312;28;20425;-92
2021/11/20 02:46:56;;;;;;;15.73;13.00;;;7.60;68.40;;;;;;4972782;28;20410;-92
2021/11/20 02:49:22;;;;;;;14.33;12.67;;;7.60;68.10;;;;;;4975339;28;20425;-91
2021/11/20 02:51:52;;;;;;;12.60;11.30;;;7.60;68.10;;;;;;4970990;28;20476;-91
2021/11/20 02:54:29;;;;;;;12.50;11.20;;;7.60;68.70;;;;;;4975122;28;20406;-91
2021/11/20 02:57:04;;;;;;;12.47;11.17;;;7.60;68.20;;;;;;4975421;28;20874;-93
2021/11/20 02:59:30;;;;;;;13.60;12.30;;;7.60;68.40;;;;;;4974839;28;20433;-91
2021/11/20 03:01:57;;;;;;;12.43;11.13;;;7.60;67.90;;;;;;4975314;28;20434;-83
2021/11/20 03:04:24;;;;;;;17.03;12.90;;;7.60;68.40;;;;;;4971780;28;20842;-83
2021/11/20 03:06:53;;;;;;;14.33;12.83;;;7.60;68.10;;;;;;4970715;28;21057;-83
2021/11/20 03:09:23;;;;;;;14.00;11.63;;;7.60;67.70;;;;;;4970875;28;20422;-83
2021/11/20 03:11:49;;;;;;;13.77;12.30;;;7.60;68.10;;;;;;4970849;28;20440;-83
2021/11/20 03:14:15;;;;;;;15.17;13.60;;;7.60;68.20;;;;;;4971099;28;20517;-83
2021/11/20 03:16:48;;;;;;;14.87;12.93;;;7.60;68.30;;;;;;4970686;28;20458;-83
2021/11/20 03:19:14;;;;;;;14.60;12.97;;;7.60;67.90;;;;;;4971124;28;20472;-84
2021/11/20 03:21:43;;;;;;;16.30;13.87;;;7.60;68.20;;;;;;4970358;28;20580;-84
2021/11/20 03:24:13;;;;;;;14.70;12.57;;;7.50;68.30;;;;;;4970597;28;20512;-84
2021/11/20 03:26:39;;;;;;;16.10;13.37;;;7.50;68.50;;;;;;4970655;28;20421;-84
2021/11/20 03:29:05;;;;;;;14.07;12.67;;;7.50;68.50;;;;;;4970900;28;20441;-83
2021/11/20 03:31:31;;;;;;;15.17;13.63;;;7.50;68.30;;;;;;4970227;28;20179;-83
2021/11/20 03:33:57;;;;;;;14.43;12.83;;;7.50;68.20;;;;;;4970505;28;20193;-83
2021/11/20 03:36:22;;;;;;;14.60;13.10;;;7.50;69.30;;;;;;4971386;28;20425;-90
2021/11/20 03:38:48;;;;;;;13.87;12.37;;;7.50;68.80;;;;;;4976891;28;20256;-92
2021/11/20 03:41:15;;;;;;;14.17;12.77;;;7.50;68.70;;;;;;4975348;28;20179;-91
2021/11/20 03:43:41;;;;;;;14.63;13.10;;;7.50;68.00;;;;;;4975476;28;20234;-90
2021/11/20 03:46:07;;;;;;;15.13;13.23;;;7.50;68.00;;;;;;4974650;28;20425;-92
2021/11/20 03:48:33;;;;;;;13.63;11.83;;;7.60;68.70;;;;;;4976842;28;20472;-92
2021/11/20 03:50:59;;;;;;;15.33;12.77;;;7.60;68.20;;;;;;4975779;28;20440;-91
2021/11/20 03:53:25;;;;;;;14.13;12.70;;;7.60;67.70;;;;;;4975646;28;20759;-91
2021/11/20 03:55:52;;;;;;;13.90;12.17;;;7.60;68.30;;;;;;4975007;28;20577;-91
2021/11/20 03:58:20;;;;;;;14.23;12.73;;;7.60;68.30;;;;;;4974384;28;20206;-91
2021/11/20 04:00:53;;;;;;;14.67;11.90;;;7.60;67.80;;;;;;4974860;28;20418;-91
2021/11/20 04:03:22;;;;;;;14.67;11.90;;;7.60;68.00;;;;;;4976332;28;20446;-91
2021/11/20 04:05:53;;;;;;;15.43;12.50;;;7.60;68.50;;;;;;4976338;28;20501;-91
2021/11/20 04:08:20;;;;;;;13.23;11.77;;;7.60;67.90;;;;;;4976809;28;20860;-91
2021/11/20 04:10:47;;;;;;;13.20;11.63;;;7.60;67.60;;;;;;4975883;28;20473;-90
2021/11/20 04:13:14;;;;;;;11.67;10.47;;;7.60;67.40;;;;;;4976405;28;20422;-90
2021/11/20 04:15:40;;;;;;;14.50;11.80;;;7.70;67.70;;;;;;4975785;28;20422;-91
2021/11/20 04:18:06;;;;;;;13.63;11.67;;;7.60;67.70;;;;;;4975745;28;20466;-91
2021/11/20 04:20:33;;;;;;;11.47;10.23;;;7.60;68.10;;;;;;4975414;28;20411;-92
2021/11/20 04:22:59;;;;;;;11.87;10.60;;;7.60;68.00;;;;;;4973496;28;20509;-87
2021/11/20 04:25:25;;;;;;;12.17;10.90;;;7.70;67.60;;;;;;4979377;28;20422;-91
2021/11/20 04:27:51;;;;;;;13.20;11.90;;;7.70;67.30;;;;;;4974007;28;20532;-91
2021/11/20 04:30:18;;;;;;;12.37;11.07;;;7.60;66.50;;;;;;4973177;28;20442;-91
2021/11/20 04:32:45;;;;;;;12.37;10.93;;;7.60;67.30;;;;;;4974048;28;20187;-91
2021/11/20 04:35:12;;;;;;;12.30;11.03;;;7.70;67.50;;;;;;4957842;29;20415;-92
2021/11/20 04:37:38;;;;;;;13.50;11.50;;;7.60;67.00;;;;;;4973520;28;20459;-93
2021/11/20 04:40:05;;;;;;;12.33;10.60;;;7.60;67.10;;;;;;4973018;28;20794;-91
2021/11/20 04:42:31;;;;;;;11.93;10.60;;;7.70;67.20;;;;;;4973021;28;20187;-91
2021/11/20 04:44:57;;;;;;;13.77;11.87;;;7.70;67.30;;;;;;4956950;29;20426;-91
2021/11/20 04:47:23;;;;;;;11.97;8.60;;;7.70;67.10;;;;;;4960305;28;20416;-90
2021/11/20 04:49:52;;;;;;;11.93;10.63;;;7.60;67.40;;;;;;4976187;28;20787;-91
2021/11/20 04:52:18;;;;;;;12.70;11.20;;;7.70;67.10;;;;;;4958723;28;20442;-92
2021/11/20 04:54:43;;;;;;;12.30;10.30;;;7.70;67.00;;;;;;4972742;28;20434;-93
2021/11/20 04:57:09;;;;;;;13.53;11.43;;;7.70;66.80;;;;;;4972347;28;20180;-91
2021/11/20 04:59:35;;;;;;;12.67;11.33;;;7.70;67.60;;;;;;4970591;28;20494;-92
2021/11/20 05:02:01;;;;;;;11.50;10.30;;;7.70;67.00;;;;;;4971010;28;20219;-92
2021/11/20 05:04:27;;;;;;;12.30;10.90;;;7.70;67.00;;;;;;4972122;28;20838;-91
2021/11/20 05:06:52;;;;;;;12.50;10.73;;;7.70;67.10;;;;;;4971649;28;20174;-91
2021/11/20 05:09:18;;;;;;;12.23;10.80;;;7.70;66.70;;;;;;4971732;28;20186;-90
2021/11/20 05:11:44;;;;;;;11.70;10.17;;;7.70;66.80;;;;;;4971719;28;20207;-91
2021/11/20 05:14:10;;;;;;;11.80;10.60;;;7.60;66.20;;;;;;4971250;28;20183;-92
2021/11/20 05:16:38;;;;;;;12.23;10.73;;;7.60;67.00;;;;;;4970881;28;20423;-92
2021/11/20 05:19:07;;;;;;;12.90;9.60;;;7.70;66.90;;;;;;4971061;28;20878;-91
2021/11/20 05:21:33;;;;;;;11.97;10.00;;;7.70;67.20;;;;;;4970399;28;20434;-92
2021/11/20 05:24:00;;;;;;;11.23;10.10;;;7.70;66.60;;;;;;4970940;28;20413;-90
2021/11/20 05:26:26;;;;;;;13.80;11.50;;;7.70;66.60;;;;;;4970484;28;20411;-93
2021/11/20 05:29:03;;;;;;;11.80;10.47;;;7.80;66.90;;;;;;4956468;28;20430;-91
2021/11/20 05:31:29;;;;;;;13.00;10.83;;;7.70;66.30;;;;;;4971524;28;20702;-91
2021/11/20 05:33:54;;;;;;;13.00;11.20;;;7.70;66.30;;;;;;4972088;28;20443;-92
2021/11/20 05:36:25;;;;;;;12.20;9.77;;;7.80;66.50;;;;;;4953865;28;20183;-83
2021/11/20 05:38:51;;;;;;;11.33;9.40;;;7.80;65.80;;;;;;4966112;28;20518;-84
2021/11/20 05:41:16;;;;;;;11.00;9.90;;;7.70;65.60;;;;;;4966790;28;20787;-84
2021/11/20 05:43:42;;;;;;;10.97;8.97;;;7.80;65.90;;;;;;4966837;28;20474;-84
2021/11/20 05:46:11;;;;;;;12.83;10.17;;;7.80;66.30;;;;;;4952310;28;20175;-84
2021/11/20 05:48:38;;;;;;;13.27;10.27;;;7.70;66.70;;;;;;4968381;28;20493;-90
2021/11/20 05:51:04;;;;;;;10.80;9.30;;;7.80;66.30;;;;;;4971277;28;20497;-90
2021/11/20 05:53:29;;;;;;;11.00;9.90;;;7.80;65.90;;;;;;4971988;28;20446;-91
2021/11/20 05:55:57;;;;;;;12.93;11.17;;;7.80;65.70;;;;;;4970634;28;20200;-91
2021/11/20 05:58:23;;;;;;;13.03;10.10;;;7.80;66.00;;;;;;4969817;28;20620;-90
2021/11/20 06:00:53;;;;;;;11.40;9.23;;;7.80;65.90;;;;;;4970394;28;20477;-90
2021/11/20 06:03:20;;;;;;;10.47;9.20;;;7.80;66.10;;;;;;4956243;28;20415;-91
2021/11/20 06:05:47;;;;;;;11.47;8.63;;;7.80;65.80;;;;;;4970567;28;20429;-92
2021/11/20 06:08:14;;;;;;;13.63;9.30;;;7.80;65.70;;;;;;4970963;28;20426;-92
2021/11/20 06:10:41;;;;;;;11.10;9.03;;;7.80;65.90;;;;;;4971011;28;20524;-92
2021/11/20 06:13:08;;;;;;;11.60;9.67;;;7.80;65.10;;;;;;4957424;28;20415;-92
2021/11/20 06:15:35;;;;;;;10.70;8.10;;;7.70;65.90;;;;;;4956628;28;20423;-91
2021/11/20 06:18:01;;;;;;;10.60;8.80;;;7.80;65.30;;;;;;4971900;28;20566;-90
2021/11/20 06:20:27;;;;;;;10.03;9.03;;;7.70;65.20;;;;;;4971088;28;20415;-92
2021/11/20 06:22:53;;;;;;;10.20;8.73;;;7.70;65.80;;;;;;4970424;28;20443;-92
2021/11/20 06:25:20;;;;;;;10.60;9.07;;;7.70;65.50;;;;;;4970199;28;20423;-91
2021/11/20 06:27:46;;;;;;;10.30;9.20;;;7.70;65.80;;;;;;4975816;28;20444;-88
2021/11/20 06:30:15;;;;;;;9.87;8.50;;;7.70;65.30;;;;;;4990383;28;20426;-91
2021/11/20 06:32:42;;;;;;;9.73;8.73;;;7.70;66.40;;;;;;4979676;28;20187;-93
2021/11/20 06:35:14;;;;;;;13.00;9.27;;;7.80;66.00;;;;;;4975691;28;20584;-89
2021/11/20 06:37:42;;;;;;;8.87;7.97;;;7.80;66.10;;;;;;4960837;29;20513;-91
2021/11/20 06:40:22;;;;;;;11.57;9.90;;;7.80;66.10;;;;;;4966186;29;20441;-91
2021/11/20 06:42:48;;;;;;;9.37;8.37;;;7.80;65.50;;;;;;4969249;29;20433;-90
2021/11/20 06:45:20;;;;;;;10.80;9.00;;;7.80;65.80;;;;;;4961533;29;20441;-91
2021/11/20 06:47:46;;;;;;;10.23;8.83;;;7.80;66.00;;;;;;4961475;28;20413;-91
2021/11/20 06:50:11;;;;;;;10.20;9.20;;;7.80;65.90;;;;;;4957525;29;20428;-88
2021/11/20 06:52:37;;;;;;;11.50;9.40;;;7.80;65.40;;;;;;4957580;29;20877;-89
2021/11/20 06:55:05;;;;;;;8.47;7.53;;;7.80;65.50;;;;;;4957973;29;20214;-89
2021/11/20 07:00:26;;;;;;;14.00;9.70;;;7.80;66.20;;;;;;4959120;28;20422;-86
2021/11/20 07:03:18;;;;;;;11.43;9.90;;;7.80;66.40;;;;;;4976236;28;20923;-90
2021/11/20 07:05:47;;;;;;;10.50;9.40;;;7.80;65.90;;;;;;4972991;28;20428;-90
2021/11/20 07:08:15;;;;;;;10.10;8.63;;;7.70;65.50;;;;;;4969493;28;20858;-89
2021/11/20 07:10:43;;;;;;;9.50;8.50;;;7.70;66.00;;;;;;4976682;28;20801;-90
2021/11/20 07:13:10;;;;;;;13.37;10.07;;;7.70;66.20;;;;;;4966930;28;20426;-90
2021/11/20 07:15:36;;;;;;;10.60;9.50;;;7.80;66.00;;;;;;4978656;28;20431;-89
2021/11/20 07:18:03;;;;;;;11.13;9.50;;;7.70;65.60;;;;;;4970236;28;20457;-90
2021/11/20 07:20:32;;;;;;;12.10;10.60;;;7.70;66.30;;;;;;4974518;28;20808;-88
2021/11/20 07:22:57;;;;;;;11.00;9.57;;;7.70;66.70;;;;;;4985334;28;20450;-89
2021/11/20 07:25:27;;;;;;;11.20;9.70;;;7.70;66.40;;;;;;4953254;29;20415;-89
2021/11/20 07:27:55;;;;;;;12.30;10.77;;;7.80;67.00;;;;;;4953747;29;20230;-90
2021/11/20 07:30:22;;;;;;;12.90;10.23;;;7.80;66.50;;;;;;4953585;29;20429;-87
2021/11/20 07:32:51;;;;;;;13.60;10.47;;;7.70;65.60;;;;;;4969040;28;20435;-90
2021/11/20 07:35:23;;;;;;;11.97;10.63;;;7.70;66.10;;;;;;4953597;29;20481;-89
2021/11/20 07:37:49;;;;;;;12.97;10.03;;;7.80;66.50;;;;;;4953710;29;20561;-84
2021/11/20 07:40:14;;;;;;;11.40;9.43;;;7.80;66.20;;;;;;4953153;28;20563;-83
2021/11/20 07:42:40;;;;;;;11.43;10.23;;;7.80;65.50;;;;;;4953695;29;20245;-84
2021/11/20 07:45:06;;;;;;;12.90;10.13;;;7.80;65.50;;;;;;4953658;29;20191;-84
2021/11/20 07:47:31;;;;;;;12.87;11.03;;;7.80;66.10;;;;;;4953559;29;20193;-84
2021/11/20 07:49:57;;;;;;;12.03;10.47;;;7.80;66.00;;;;;;4968796;28;20302;-82
2021/11/20 07:52:23;;;;;;;13.77;10.60;;;7.80;65.90;;;;;;4974207;28;20191;-83
2021/11/20 07:54:48;;;;;;;12.80;11.20;;;7.90;66.60;;;;;;4987052;28;20226;-84
2021/11/20 07:57:14;;;;;;;11.40;9.70;;;7.80;66.00;;;;;;4974348;28;20194;-84
2021/11/20 07:59:40;;;;;;;11.83;10.50;;;7.80;66.00;;;;;;4971002;28;20185;-82
2021/11/20 08:02:08;;;;;;;11.00;9.73;;;7.80;66.30;;;;;;4980381;28;20209;-85
2021/11/20 08:04:38;;;;;;;18.23;11.27;;;7.80;66.10;;;;;;4989972;28;20868;-84
2021/11/20 08:07:08;;;;;;;14.07;10.60;;;7.80;66.00;;;;;;4974207;28;20425;-85
2021/11/20 08:09:35;;;;;;;12.33;10.77;;;7.80;65.60;;;;;;4971276;28;20427;-85
2021/11/20 08:12:02;;;;;;;12.77;11.40;;;7.80;65.90;;;;;;4963856;28;20452;-86
2021/11/20 08:14:27;;;;;;;13.27;11.40;;;7.90;67.20;;;;;;4989031;28;20488;-85
2021/11/20 08:16:53;;;;;;;12.20;9.90;;;7.90;66.60;;;;;;4980223;28;20437;-85
2021/11/20 08:19:19;;;;;;;12.10;10.73;;;7.90;66.30;;;;;;4982006;28;20636;-85
2021/11/20 08:21:45;;;;;;;11.70;10.40;;;7.90;66.50;;;;;;4963907;28;20528;-86
2021/11/20 08:24:11;;;;;;;12.37;10.83;;;7.90;65.90;;;;;;4972235;28;20214;-85
2021/11/20 08:26:38;;;;;;;11.50;10.30;;;7.90;65.70;;;;;;4972436;28;20456;-85
2021/11/20 08:29:06;;;;;;;11.70;10.50;;;7.90;66.10;;;;;;4974026;28;20841;-83
2021/11/20 08:31:34;;;;;;;11.80;10.60;;;7.90;66.20;;;;;;4974014;28;20773;-84
2021/11/20 08:34:00;;;;;;;12.50;10.63;;;8.00;66.50;;;;;;4965298;28;20501;-84
2021/11/20 08:36:26;;;;;;;12.53;10.50;;;8.00;65.70;;;;;;4973863;28;21144;-84
2021/11/20 08:38:52;;;;;;;11.23;10.03;;;8.00;65.40;;;;;;4972747;28;20544;-85
2021/11/20 08:41:18;;;;;;;12.70;10.03;;;8.00;65.60;;;;;;4973096;28;20588;-85
2021/11/20 08:43:45;;;;;;;11.60;10.20;;;8.10;66.20;;;;;;4956775;28;21010;-84
2021/11/20 08:46:10;;;;;;;13.47;11.43;;;8.10;65.80;;;;;;4965633;28;20792;-87
2021/11/20 08:48:37;;;;;;;12.07;10.67;;;8.10;65.90;;;;;;4964082;28;20427;-89
2021/11/20 08:51:07;;;;;;;12.63;11.13;;;8.10;65.50;;;;;;4971657;28;20201;-87
2021/11/20 08:53:33;;;;;;;15.23;11.90;;;8.10;65.80;;;;;;4983964;28;20923;-88
2021/11/20 08:56:00;;;;;;;13.73;12.30;;;8.10;65.60;;;;;;4970588;28;20434;-87
2021/11/20 08:58:26;;;;;;;11.10;8.40;;;8.10;65.40;;;;;;4970556;28;20668;-86
2021/11/20 09:01:22;;;;;;;11.10;9.10;;;8.00;65.60;;;;;;4964592;28;20929;-86
2021/11/20 09:03:48;;;;;;;13.53;10.10;;;8.00;65.30;;;;;;4971996;28;20433;-85
2021/11/20 09:06:50;;;;;;;9.90;8.57;;;8.10;65.80;;;;;;4973621;28;20422;-86
2021/11/20 09:09:25;;;;;;;11.00;8.80;;;8.10;65.50;;;;;;4968764;28;20277;-86
2021/11/20 09:12:10;;;;;;;9.60;8.60;;;8.10;64.80;;;;;;4971815;28;20430;-86
2021/11/20 09:14:57;;;;;;;9.77;8.83;;;8.10;65.70;;;;;;4971483;28;20907;-85
2021/11/20 09:17:24;;;;;;;10.63;9.23;;;8.10;65.10;;;;;;4965419;28;20430;-86
2021/11/20 09:19:50;;;;;;;11.60;9.53;;;8.20;65.40;;;;;;4969867;28;20453;-85
2021/11/20 09:22:17;;;;;;;8.60;7.70;;;8.20;65.00;;;;;;4971550;28;20514;-86
2021/11/20 09:24:45;;;;;;;8.87;7.83;;;8.10;64.70;;;;;;4971897;28;20492;-86
2021/11/20 09:27:12;;;;;;;9.23;8.23;;;8.20;64.60;;;;;;4972168;28;20944;-87
2021/11/20 09:29:39;;;;;;;9.60;8.60;;;8.20;64.40;;;;;;4972947;28;20437;-86
2021/11/20 09:32:06;;;;;;;11.83;8.50;;;8.20;64.50;;;;;;4973065;28;20485;-84
2021/11/20 09:34:32;;;;;;;10.03;8.83;;;8.20;63.80;;;;;;4972470;28;20422;-86
2021/11/20 09:36:59;;;;;;;10.03;7.43;;;8.30;64.00;;;;;;4971742;28;20930;-86
2021/11/20 09:39:29;;;;;;;10.47;8.53;;;8.30;63.60;;;;;;4971945;28;20218;-87
2021/11/20 09:42:16;;;;;;;8.10;7.30;;;8.20;63.90;;;;;;4971220;28;20421;-85
2021/11/20 09:44:46;;;;;;;8.80;7.97;;;8.30;63.80;;;;;;4971854;28;20421;-85
2021/11/20 09:47:17;;;;;;;8.67;6.50;;;8.30;63.40;;;;;;4971099;28;20509;-87
2021/11/20 09:49:47;;;;;;;11.67;8.70;;;8.30;63.20;;;;;;4971460;28;20426;-86
2021/11/20 09:52:14;;;;;;;7.70;7.00;;;8.40;63.10;;;;;;4971180;28;20501;-89
2021/11/20 09:54:44;;;;;;;7.93;7.17;;;8.30;63.20;;;;;;4971189;28;20430;-84
2021/11/20 09:57:14;;;;;;;8.00;7.20;;;8.40;63.50;;;;;;4972156;28;20433;-86
2021/11/20 09:59:52;;;;;;;8.07;7.17;;;8.40;63.10;;;;;;4969475;28;20469;-87
2021/11/20 10:02:26;;;;;;;8.80;6.73;;;8.40;62.90;;;;;;4972609;28;20833;-86
2021/11/20 10:05:19;;;;;;;8.73;7.13;;;8.40;62.90;;;;;;4972220;28;20476;-87
2021/11/20 10:08:07;;;;;;;7.50;6.80;;;8.50;63.30;;;;;;4972582;28;21024;-87
2021/11/20 10:10:36;;;;;;;9.57;8.67;;;8.50;62.40;;;;;;4952807;28;20432;-87
2021/11/20 10:13:16;;;;;;;6.53;5.27;;;8.50;60.70;;;;;;4973730;28;20422;-87
2021/11/20 10:15:54;;;;;;;10.20;9.40;;;8.50;61.80;;;;;;4971072;28;20430;-87
2021/11/20 10:18:31;;;;;;;12.30;11.23;;;8.40;60.80;;;;;;4971189;28;21012;-86
2021/11/20 10:21:09;;;;;;;15.70;14.30;;;8.50;61.60;;;;;;4971054;28;20434;-88
2021/11/20 10:23:46;;;;;;;4.70;4.30;;;8.50;61.60;;;;;;4971277;28;21075;-86
2021/11/20 10:26:30;;;;;;;5.33;3.80;;;8.50;60.70;;;;;;4971884;28;20414;-93
2021/11/20 10:29:14;;;;;;;4.80;4.27;;;8.50;60.80;;;;;;4974693;28;20456;-93
2021/11/20 10:31:45;;;;;;;4.73;3.83;;;8.50;60.70;;;;;;4971344;28;20484;-87
2021/11/20 10:34:22;;;;;;;3.30;3.03;;;8.50;61.20;;;;;;4971462;28;20430;-87
2021/11/20 10:36:54;;;;;;;4.37;3.97;;;8.50;60.70;;;;;;4971374;28;20470;-87
2021/11/20 10:39:23;;;;;;;4.93;4.40;;;8.50;61.10;;;;;;4970771;28;20461;-87
2021/11/20 10:42:13;;;;;;;5.23;4.70;;;8.50;60.70;;;;;;4971238;28;20418;-87
2021/11/20 10:44:39;;;;;;;5.47;4.90;;;8.50;60.70;;;;;;4971494;28;20426;-88
2021/11/20 10:47:10;;;;;;;5.00;4.50;;;8.40;60.60;;;;;;4971754;28;20433;-86
2021/11/20 10:50:13;;;;;;;5.90;5.03;;;8.50;61.50;;;;;;4973880;28;20903;-92
2021/11/20 10:53:09;;;;;;;5.17;4.67;;;8.50;59.60;;;;;;4979424;28;20429;-92
2021/11/20 10:55:57;;;;;;;5.50;5.00;;;8.40;60.60;;;;;;4979015;28;20449;-92
2021/11/20 10:58:50;;;;;;;5.70;4.83;;;8.30;60.40;;;;;;4979766;28;20461;-92
2021/11/20 11:02:04;;;;;;;6.10;5.33;;;8.40;61.50;;;;;;4980295;28;20471;-91
2021/11/20 11:04:51;;;;;;;5.47;4.97;;;8.50;61.90;;;;;;4980066;28;20425;-91
2021/11/20 11:07:30;;;;;;;4.97;4.47;;;8.50;60.60;;;;;;4978212;28;20458;-92
2021/11/20 11:10:02;;;;;;;5.73;5.23;;;8.50;60.60;;;;;;4979404;28;20406;-92
2021/11/20 11:12:30;;;;;;;5.17;4.70;;;8.50;60.60;;;;;;4979100;28;20417;-93
2021/11/20 11:15:16;;;;;;;5.07;4.37;;;8.50;60.30;;;;;;4979344;28;20422;-93
2021/11/20 11:18:00;;;;;;;5.10;4.60;;;8.60;60.50;;;;;;4979629;28;20462;-93
2021/11/20 11:20:29;;;;;;;5.03;4.00;;;8.60;59.40;;;;;;4982698;28;20414;-93
2021/11/20 11:23:01;;;;;;;5.83;5.33;;;8.60;59.70;;;;;;4976460;28;20937;-86
2021/11/20 11:25:32;;;;;;;6.07;5.17;;;8.60;59.50;;;;;;4975013;28;20425;-86
2021/11/20 11:28:39;;;;;;;5.27;4.77;;;8.60;59.40;;;;;;4974678;28;20942;-86
2021/11/20 11:31:23;;;;;;;5.70;4.83;;;8.60;58.90;;;;;;4961086;28;20428;-85
2021/11/20 11:33:52;;;;;;;5.87;5.37;;;8.50;59.00;;;;;;4974886;28;20472;-85
2021/11/20 11:36:28;;;;;;;4.13;3.70;;;8.50;59.90;;;;;;4974866;28;20513;-86
2021/11/20 11:39:06;;;;;;;5.07;4.57;;;8.60;59.50;;;;;;4974255;28;20799;-86
2021/11/20 11:41:46;;;;;;;4.93;4.53;;;8.60;59.40;;;;;;4974340;28;20426;-86
2021/11/20 11:44:52;;;;;;;4.47;4.07;;;8.60;58.50;;;;;;4974675;28;20426;-85
2021/11/20 11:47:47;;;;;;;6.93;6.00;;;8.60;59.30;;;;;;4973924;28;20453;-86
2021/11/20 11:50:24;;;;;;;4.90;4.40;;;8.70;59.00;;;;;;4971705;28;20458;-84
2021/11/20 11:52:57;;;;;;;4.87;4.40;;;8.60;58.50;;;;;;4973891;28;20512;-85
2021/11/20 11:55:39;;;;;;;6.57;4.53;;;8.60;59.20;;;;;;4974348;28;20923;-85
2021/11/20 11:58:34;;;;;;;6.20;5.40;;;8.60;59.00;;;;;;4973974;28;20470;-85
2021/11/20 12:01:14;;;;;;;5.43;4.93;;;8.60;58.80;;;;;;4974513;28;20915;-85
2021/11/20 12:04:08;;;;;;;5.13;4.63;;;8.60;58.90;;;;;;4974932;28;20421;-85
2021/11/20 12:06:42;;;;;;;5.83;5.20;;;8.60;59.00;;;;;;4962133;28;20426;-86
2021/11/20 12:09:33;;;;;;;5.73;5.23;;;8.70;58.60;;;;;;4974998;28;20776;-86
2021/11/20 12:12:25;;;;;;;6.03;5.23;;;8.60;59.00;;;;;;4976018;28;20418;-86
2021/11/20 12:14:50;;;;;;;6.00;5.50;;;8.70;59.90;;;;;;4974941;28;20418;-85
2021/11/20 12:17:28;;;;;;;6.43;5.80;;;8.70;60.40;;;;;;4974982;28;20784;-85
2021/11/20 12:20:13;;;;;;;6.40;5.80;;;8.70;59.80;;;;;;4975126;28;20213;-85
2021/11/20 12:22:55;;;;;;;6.30;5.70;;;8.70;59.30;;;;;;4975884;28;20430;-85
2021/11/20 12:25:36;;;;;;;8.90;6.70;;;8.70;59.20;;;;;;4973846;28;20422;-81
2021/11/20 12:28:07;;;;;;;6.53;5.90;;;8.60;59.30;;;;;;4973581;28;20430;-83
2021/11/20 12:31:01;;;;;;;7.90;7.20;;;8.60;59.40;;;;;;4973746;28;20524;-84
2021/11/20 12:33:39;;;;;;;7.13;6.43;;;8.60;58.70;;;;;;4973565;28;20915;-85
2021/11/20 12:36:26;;;;;;;6.87;6.37;;;8.60;58.10;;;;;;4973788;28;20788;-88
2021/11/20 12:39:16;;;;;;;8.07;7.23;;;8.60;58.60;;;;;;4986246;28;20473;-90
2021/11/20 12:42:20;;;;;;;8.40;7.13;;;8.60;58.60;;;;;;4977486;28;20453;-89
2021/11/20 12:45:02;;;;;;;8.77;7.97;;;8.70;58.60;;;;;;4945180;28;20418;-89
2021/11/20 12:47:55;;;;;;;7.40;6.80;;;8.60;57.80;;;;;;4975208;28;20420;-88
2021/11/20 12:50:50;;;;;;;8.70;7.80;;;8.60;57.40;;;;;;4975183;28;20425;-90
2021/11/20 12:53:34;;;;;;;7.70;6.50;;;8.60;57.70;;;;;;4957669;28;20967;-89
2021/11/20 12:56:18;;;;;;;7.53;6.83;;;8.60;57.90;;;;;;4973884;28;20433;-89
2021/11/20 12:58:55;;;;;;;9.37;6.93;;;8.60;58.10;;;;;;4974008;28;20508;-90
2021/11/20 13:01:30;;;;;;;7.80;6.83;;;8.60;57.40;;;;;;4973362;28;20417;-83
2021/11/20 13:04:05;;;;;;;8.67;7.50;;;8.70;57.80;;;;;;4971542;28;20541;-86
2021/11/20 13:06:36;;;;;;;8.63;7.40;;;8.50;57.70;;;;;;4972447;28;20426;-86
2021/11/20 13:09:08;;;;;;;8.63;7.77;;;8.50;57.50;;;;;;4972281;28;20422;-85
2021/11/20 13:11:48;;;;;;;8.60;7.53;;;8.40;58.20;;;;;;4972306;28;20445;-85